Time;durP1;ratioP1;P1;durP2;ratioP2;P2;SDS_P1;SDS_P2;PMS_P1;PMS_P2;Temp;Humidity;BMP_temperature;BMP_pressure;BME280_temperature;BME280_humidity;BME280_pressure;Samples;Min_cycle;Max_cycle;Signal;HPM_P1;HPM_P2
2022/08/01 00:00:46;;;;;;;3.70;2.20;;;15.90;71.30;;;;;;4181728;28;20205;-73
2022/08/01 00:02:46;;;;;;;2.30;2.10;;;15.90;71.80;;;;;;4181943;28;20263;-74
2022/08/01 00:04:47;;;;;;;2.17;1.97;;;15.80;71.80;;;;;;4179529;28;20243;-73
2022/08/01 00:06:48;;;;;;;2.47;2.23;;;15.80;72.50;;;;;;4181518;28;20363;-73
2022/08/01 00:08:48;;;;;;;3.43;2.80;;;15.70;72.80;;;;;;4181389;28;20185;-73
2022/08/01 00:10:49;;;;;;;6.27;3.13;;;15.60;73.40;;;;;;4181652;28;20187;-73
2022/08/01 00:12:49;;;;;;;3.27;2.73;;;15.60;73.60;;;;;;4181731;28;20255;-73
2022/08/01 00:14:50;;;;;;;3.33;2.77;;;15.60;73.70;;;;;;4180923;28;20667;-73
2022/08/01 00:16:50;;;;;;;2.50;2.30;;;15.50;74.10;;;;;;4181667;28;20666;-74
2022/08/01 00:18:52;;;;;;;3.20;2.97;;;15.50;74.70;;;;;;4181468;28;20651;-74
2022/08/01 00:20:52;;;;;;;3.73;2.47;;;15.40;75.30;;;;;;4181323;28;20188;-74
2022/08/01 00:22:53;;;;;;;2.93;2.70;;;15.40;75.20;;;;;;4181512;28;20202;-74
2022/08/01 00:24:53;;;;;;;2.90;2.30;;;15.40;76.00;;;;;;4179630;28;20215;-74
2022/08/01 00:26:54;;;;;;;2.83;2.63;;;15.40;76.00;;;;;;4181148;28;20187;-74
2022/08/01 00:28:54;;;;;;;4.30;4.00;;;15.40;76.10;;;;;;4181355;28;20565;-73
2022/08/01 00:30:55;;;;;;;4.23;2.43;;;15.50;76.30;;;;;;4181341;28;20715;-74
2022/08/01 00:32:55;;;;;;;3.27;3.03;;;15.40;76.20;;;;;;4181419;28;20184;-73
2022/08/01 00:34:56;;;;;;;2.50;2.30;;;15.40;76.30;;;;;;4179044;28;20200;-74
2022/08/01 00:36:57;;;;;;;2.03;1.93;;;15.40;76.80;;;;;;4181147;28;20181;-74
2022/08/01 00:38:57;;;;;;;3.10;2.00;;;15.40;76.70;;;;;;4181235;28;20202;-74
2022/08/01 00:40:58;;;;;;;2.67;2.33;;;15.30;77.60;;;;;;4181222;28;20183;-73
2022/08/01 00:42:58;;;;;;;2.10;1.93;;;15.30;77.90;;;;;;4180977;28;20192;-73
2022/08/01 00:44:59;;;;;;;3.67;3.37;;;15.20;77.70;;;;;;4180480;28;20223;-75
2022/08/01 00:47:00;;;;;;;2.20;1.97;;;15.20;77.90;;;;;;4179862;28;20180;-75
2022/08/01 00:49:01;;;;;;;2.63;2.43;;;15.20;77.90;;;;;;4180901;28;20172;-75
2022/08/01 00:51:04;;;;;;;2.50;2.03;;;15.10;78.70;;;;;;4181160;28;20172;-74
2022/08/01 00:53:05;;;;;;;2.30;2.10;;;15.00;78.90;;;;;;4180720;28;20647;-75
2022/08/01 00:55:06;;;;;;;4.57;4.27;;;14.90;79.50;;;;;;4180422;28;20613;-75
2022/08/01 00:57:08;;;;;;;4.83;4.43;;;14.90;80.30;;;;;;4180964;28;20172;-75
2022/08/01 00:59:10;;;;;;;2.33;2.10;;;14.90;80.00;;;;;;4180582;28;20179;-75
2022/08/01 01:01:11;;;;;;;5.30;2.83;;;14.90;79.10;;;;;;4180774;28;20173;-75
2022/08/01 01:03:11;;;;;;;2.30;2.10;;;14.90;79.70;;;;;;4180484;28;20238;-74
2022/08/01 01:05:12;;;;;;;4.47;2.60;;;14.80;80.80;;;;;;4180376;28;20203;-75
2022/08/01 01:07:20;;;;;;;2.40;2.20;;;14.80;81.10;;;;;;4180670;28;20168;-75
2022/08/01 01:09:33;;;;;;;3.00;2.80;;;14.70;82.30;;;;;;4179422;28;20180;-75
2022/08/01 01:11:44;;;;;;;2.93;2.70;;;14.70;82.20;;;;;;4180755;28;20241;-74
2022/08/01 01:13:52;;;;;;;4.13;3.20;;;14.60;82.50;;;;;;4179969;28;20172;-75
2022/08/01 01:15:59;;;;;;;3.43;2.47;;;14.60;83.10;;;;;;4180914;28;20207;-75
2022/08/01 01:18:17;;;;;;;3.27;2.97;;;14.60;83.10;;;;;;4180514;28;20161;-75
2022/08/01 01:20:21;;;;;;;2.10;1.90;;;14.50;83.30;;;;;;4180502;28;20172;-75
2022/08/01 01:22:37;;;;;;;2.67;2.43;;;14.50;83.80;;;;;;4180380;28;20200;-75
2022/08/01 01:24:56;;;;;;;2.80;2.50;;;14.40;84.50;;;;;;4179730;28;20591;-75
2022/08/01 01:27:22;;;;;;;3.30;2.20;;;14.40;84.80;;;;;;4180291;28;20231;-75
2022/08/01 01:29:38;;;;;;;2.30;2.10;;;14.30;85.60;;;;;;4180360;28;20252;-74
2022/08/01 01:31:44;;;;;;;3.40;2.20;;;14.20;86.00;;;;;;4180481;28;20172;-75
2022/08/01 01:33:45;;;;;;;2.10;1.90;;;14.20;86.90;;;;;;4179762;28;20294;-76
2022/08/01 01:35:49;;;;;;;3.53;2.23;;;14.20;87.00;;;;;;4178914;28;20187;-74
2022/08/01 01:37:58;;;;;;;3.43;2.20;;;14.10;88.40;;;;;;4177058;28;20324;-74
2022/08/01 01:39:59;;;;;;;2.27;2.07;;;14.20;89.60;;;;;;4179202;28;20218;-76
2022/08/01 01:42:01;;;;;;;2.43;2.23;;;14.10;90.10;;;;;;4163855;28;20177;-75
2022/08/01 01:44:04;;;;;;;5.03;2.80;;;14.10;90.30;;;;;;4178885;28;20276;-75
2022/08/01 01:46:06;;;;;;;3.33;2.60;;;14.20;90.30;;;;;;4180070;28;20196;-75
2022/08/01 01:48:08;;;;;;;3.60;3.30;;;14.20;90.00;;;;;;4180203;28;20176;-75
2022/08/01 01:50:12;;;;;;;2.60;2.23;;;14.20;90.40;;;;;;4180043;28;20207;-75
2022/08/01 01:52:15;;;;;;;3.40;2.40;;;14.10;90.20;;;;;;4180049;28;20180;-75
2022/08/01 01:54:17;;;;;;;3.13;2.83;;;14.10;90.10;;;;;;4179338;28;20200;-75
2022/08/01 01:56:19;;;;;;;1.90;1.80;;;14.00;89.70;;;;;;4179926;28;20208;-75
2022/08/01 01:58:21;;;;;;;2.07;1.87;;;14.10;89.50;;;;;;4179793;28;20674;-75
2022/08/01 02:00:23;;;;;;;2.33;2.13;;;14.00;89.10;;;;;;4179766;28;20184;-75
2022/08/01 02:02:24;;;;;;;2.40;1.80;;;14.00;89.80;;;;;;4179745;28;20663;-75
2022/08/01 02:04:26;;;;;;;2.87;2.53;;;14.00;89.20;;;;;;4172033;28;20207;-74
2022/08/01 02:06:28;;;;;;;2.83;2.33;;;14.00;89.90;;;;;;4178132;28;20195;-75
2022/08/01 02:08:30;;;;;;;2.80;2.50;;;14.00;90.30;;;;;;4179777;28;20181;-76
2022/08/01 02:10:32;;;;;;;2.30;2.10;;;13.90;90.70;;;;;;4178484;28;20206;-75
2022/08/01 02:12:35;;;;;;;3.03;2.80;;;13.90;90.40;;;;;;4179726;28;20197;-75
2022/08/01 02:14:39;;;;;;;2.47;1.90;;;13.90;90.40;;;;;;4179252;28;20192;-75
2022/08/01 02:16:43;;;;;;;2.40;2.20;;;13.90;90.80;;;;;;4179776;28;20180;-74
2022/08/01 02:18:44;;;;;;;2.20;2.00;;;13.90;91.20;;;;;;4178685;28;20554;-75
2022/08/01 02:20:46;;;;;;;2.63;2.30;;;13.90;90.70;;;;;;4178859;28;20195;-75
2022/08/01 02:23:00;;;;;;;2.50;2.20;;;13.90;90.70;;;;;;4179432;28;20245;-74
2022/08/01 02:25:18;;;;;;;2.53;2.20;;;13.90;90.80;;;;;;4179163;28;20195;-75
2022/08/01 02:27:25;;;;;;;2.50;2.20;;;13.90;90.90;;;;;;4179365;28;20167;-77
2022/08/01 02:29:35;;;;;;;3.80;2.53;;;13.90;91.00;;;;;;4179287;28;20172;-76
2022/08/01 02:31:39;;;;;;;2.90;2.30;;;13.90;90.70;;;;;;4178020;28;20732;-76
2022/08/01 02:33:48;;;;;;;2.60;2.40;;;13.90;91.00;;;;;;4178908;28;20165;-76
2022/08/01 02:35:52;;;;;;;3.93;2.10;;;14.00;90.80;;;;;;4179274;28;20176;-76
2022/08/01 02:37:54;;;;;;;2.40;2.10;;;13.90;91.10;;;;;;4179415;28;20229;-76
2022/08/01 02:39:56;;;;;;;2.87;2.10;;;13.90;91.20;;;;;;4179219;28;20280;-76
2022/08/01 02:42:00;;;;;;;3.57;2.40;;;13.90;91.10;;;;;;4179410;28;20196;-76
2022/08/01 02:44:04;;;;;;;2.97;2.50;;;13.90;91.30;;;;;;4178585;28;20176;-76
2022/08/01 02:46:10;;;;;;;2.87;2.40;;;13.90;91.40;;;;;;4179151;28;20250;-76
2022/08/01 02:48:14;;;;;;;3.23;2.53;;;13.90;90.90;;;;;;4177423;28;20277;-76
2022/08/01 02:50:16;;;;;;;3.63;2.90;;;13.90;91.10;;;;;;4179329;28;20176;-76
2022/08/01 02:52:19;;;;;;;3.57;2.67;;;13.80;91.10;;;;;;4179478;28;20176;-76
2022/08/01 02:54:22;;;;;;;2.73;2.30;;;13.80;91.60;;;;;;4178871;28;20231;-76
2022/08/01 02:56:23;;;;;;;2.60;2.40;;;13.80;91.50;;;;;;4179081;28;20317;-76
2022/08/01 02:58:24;;;;;;;2.97;2.43;;;13.80;90.90;;;;;;4179031;28;20215;-77
2022/08/01 03:00:26;;;;;;;2.77;2.40;;;13.60;90.90;;;;;;4178912;28;20222;-76
2022/08/01 03:02:28;;;;;;;4.03;2.17;;;13.60;91.30;;;;;;4179158;28;20176;-76
2022/08/01 03:04:32;;;;;;;2.40;2.20;;;13.60;91.20;;;;;;4178533;28;20236;-76
2022/08/01 03:06:34;;;;;;;2.57;2.30;;;13.60;91.70;;;;;;4178770;28;20658;-77
2022/08/01 03:08:37;;;;;;;2.50;2.10;;;13.60;91.50;;;;;;4177914;28;20349;-76
2022/08/01 03:10:41;;;;;;;2.93;2.20;;;13.60;91.70;;;;;;4179142;28;20180;-76
2022/08/01 03:12:43;;;;;;;2.73;2.30;;;13.60;91.40;;;;;;4179115;28;20188;-76
2022/08/01 03:14:46;;;;;;;7.83;7.20;;;13.50;91.60;;;;;;4178548;28;20211;-76
2022/08/01 03:16:47;;;;;;;2.73;2.13;;;13.60;91.80;;;;;;4179061;28;20693;-76
2022/08/01 03:18:49;;;;;;;3.13;2.83;;;13.60;91.40;;;;;;4161228;28;20221;-76
2022/08/01 03:20:52;;;;;;;3.10;2.80;;;13.50;91.70;;;;;;4179142;28;20263;-76
2022/08/01 03:22:53;;;;;;;3.80;3.13;;;13.50;92.10;;;;;;4178765;28;20227;-77
2022/08/01 03:24:55;;;;;;;3.80;2.30;;;13.50;92.30;;;;;;4176882;28;20212;-76
2022/08/01 03:26:58;;;;;;;2.87;2.50;;;13.50;92.40;;;;;;4179288;28;20580;-76
2022/08/01 03:29:02;;;;;;;3.10;2.43;;;13.50;92.70;;;;;;4178826;28;20176;-76
2022/08/01 03:31:03;;;;;;;2.60;2.13;;;13.40;92.70;;;;;;4177646;28;20204;-77
2022/08/01 03:33:03;;;;;;;2.67;2.37;;;13.40;93.00;;;;;;4178822;28;20225;-76
2022/08/01 03:35:05;;;;;;;3.40;2.73;;;13.40;93.30;;;;;;4178443;28;20226;-77
2022/08/01 03:37:12;;;;;;;3.97;2.43;;;13.30;93.40;;;;;;4178920;28;20177;-77
2022/08/01 03:39:16;;;;;;;2.77;2.50;;;13.30;94.00;;;;;;4178122;28;20160;-77
2022/08/01 03:41:23;;;;;;;4.43;2.83;;;13.30;94.00;;;;;;4164470;28;20241;-77
2022/08/01 03:43:35;;;;;;;3.50;2.53;;;13.30;94.20;;;;;;4162130;28;20175;-76
2022/08/01 03:45:39;;;;;;;3.20;2.63;;;13.30;93.80;;;;;;4162248;28;20235;-77
2022/08/01 03:47:43;;;;;;;4.40;2.70;;;13.30;93.90;;;;;;4166758;28;20219;-76
2022/08/01 03:49:46;;;;;;;4.10;2.87;;;13.30;94.40;;;;;;4179027;28;20245;-76
2022/08/01 03:51:49;;;;;;;4.17;3.20;;;13.30;94.20;;;;;;4178956;28;20647;-76
2022/08/01 03:53:51;;;;;;;3.73;2.43;;;13.30;94.40;;;;;;4178128;28;20224;-77
2022/08/01 03:55:53;;;;;;;3.60;2.73;;;13.20;94.50;;;;;;4178853;28;20242;-76
2022/08/01 03:57:55;;;;;;;3.37;2.77;;;13.20;94.70;;;;;;4178743;28;20176;-77
2022/08/01 03:59:57;;;;;;;3.57;2.50;;;13.20;94.70;;;;;;4179350;28;20207;-77
2022/08/01 04:01:59;;;;;;;3.17;2.87;;;13.20;94.70;;;;;;4181661;28;20279;-77
2022/08/01 04:04:00;;;;;;;3.30;3.00;;;13.10;95.30;;;;;;4180811;28;20183;-77
2022/08/01 04:06:04;;;;;;;3.70;3.30;;;13.20;95.40;;;;;;4181827;28;20764;-76
2022/08/01 04:08:05;;;;;;;3.07;2.70;;;13.20;95.30;;;;;;4181608;28;20173;-76
2022/08/01 04:10:06;;;;;;;3.93;3.10;;;13.20;95.30;;;;;;4181593;28;20173;-76
2022/08/01 04:12:07;;;;;;;2.90;2.67;;;13.20;95.30;;;;;;4182886;28;20172;-76
2022/08/01 04:14:08;;;;;;;4.57;3.00;;;13.10;95.40;;;;;;4181059;28;20204;-75
2022/08/01 04:16:08;;;;;;;4.43;3.30;;;13.10;95.70;;;;;;4179209;28;20648;-76
2022/08/01 04:18:09;;;;;;;3.50;3.07;;;13.10;95.80;;;;;;4179150;28;20219;-76
2022/08/01 04:20:11;;;;;;;2.70;2.50;;;13.10;95.90;;;;;;4183453;28;20210;-77
2022/08/01 04:22:14;;;;;;;3.27;2.77;;;13.10;95.40;;;;;;4183104;28;20220;-77
2022/08/01 04:24:18;;;;;;;3.27;2.73;;;13.20;95.90;;;;;;4182786;28;20192;-75
2022/08/01 04:26:21;;;;;;;3.57;2.87;;;13.10;95.60;;;;;;4181945;28;20268;-77
2022/08/01 04:28:22;;;;;;;4.07;3.60;;;13.10;95.80;;;;;;4181004;28;20176;-77
2022/08/01 04:30:30;;;;;;;6.80;2.87;;;13.10;95.70;;;;;;4181396;28;20178;-77
2022/08/01 04:32:34;;;;;;;3.40;3.10;;;13.20;96.00;;;;;;4179773;28;20177;-75
2022/08/01 04:34:39;;;;;;;3.20;2.90;;;13.10;95.30;;;;;;4180610;28;20222;-76
2022/08/01 04:36:41;;;;;;;3.67;3.23;;;13.10;95.90;;;;;;4180868;28;20188;-76
2022/08/01 04:38:45;;;;;;;3.80;2.80;;;13.10;96.10;;;;;;4180624;28;20259;-76
2022/08/01 04:40:46;;;;;;;3.70;3.33;;;13.20;96.00;;;;;;4180736;28;20184;-76
2022/08/01 04:42:48;;;;;;;3.20;2.90;;;13.20;96.10;;;;;;4180624;28;20734;-76
2022/08/01 04:44:49;;;;;;;3.13;2.83;;;13.30;95.90;;;;;;4178714;28;20236;-76
2022/08/01 04:46:54;;;;;;;4.33;2.90;;;13.30;95.40;;;;;;4180670;28;20180;-76
2022/08/01 04:48:55;;;;;;;4.37;3.47;;;13.30;95.70;;;;;;4180570;28;20652;-76
2022/08/01 04:50:56;;;;;;;4.77;3.17;;;13.30;95.40;;;;;;4180779;28;20251;-76
2022/08/01 04:52:56;;;;;;;2.93;2.60;;;13.40;95.40;;;;;;4180777;28;20648;-76
2022/08/01 04:54:57;;;;;;;3.57;3.27;;;13.40;95.40;;;;;;4179921;28;20730;-76
2022/08/01 04:56:59;;;;;;;6.37;3.57;;;13.40;95.60;;;;;;4180803;28;20195;-76
2022/08/01 05:01:26;;;;;;;5.17;3.10;;;13.50;95.40;;;;;;4179461;28;20204;-76
2022/08/01 05:03:27;;;;;;;3.17;2.80;;;13.60;95.10;;;;;;4179747;28;20173;-76
2022/08/01 05:05:28;;;;;;;3.77;2.90;;;13.60;94.90;;;;;;4180183;28;20709;-76
2022/08/01 05:07:28;;;;;;;3.90;3.10;;;13.60;94.90;;;;;;4180387;28;20180;-76
2022/08/01 05:09:29;;;;;;;3.17;2.87;;;13.60;94.90;;;;;;4180340;28;20188;-76
2022/08/01 05:11:30;;;;;;;3.67;3.00;;;13.70;94.70;;;;;;4179821;28;20251;-76
2022/08/01 05:13:31;;;;;;;3.97;3.23;;;13.80;94.70;;;;;;4179736;28;20173;-76
2022/08/01 05:15:31;;;;;;;3.30;3.00;;;13.80;94.50;;;;;;4180246;28;20752;-76
2022/08/01 05:17:32;;;;;;;3.33;3.00;;;13.90;94.50;;;;;;4180300;28;20263;-76
2022/08/01 05:19:38;;;;;;;5.53;3.03;;;13.80;94.50;;;;;;4180143;28;20187;-76
2022/08/01 05:21:38;;;;;;;3.13;2.57;;;13.80;94.60;;;;;;4180090;28;20212;-76
2022/08/01 05:23:39;;;;;;;4.33;3.60;;;13.90;94.80;;;;;;4179624;28;20192;-75
2022/08/01 05:25:39;;;;;;;3.77;3.37;;;13.90;95.10;;;;;;4178969;28;20216;-77
2022/08/01 05:27:40;;;;;;;3.80;3.40;;;13.90;95.10;;;;;;4180183;28;20177;-77
2022/08/01 05:29:41;;;;;;;4.07;2.73;;;14.00;94.90;;;;;;4180000;28;20176;-77
2022/08/01 05:31:41;;;;;;;7.13;3.33;;;14.00;95.30;;;;;;4169182;28;20227;-77
2022/08/01 05:33:42;;;;;;;3.93;3.53;;;14.00;95.30;;;;;;4162741;28;20269;-77
2022/08/01 05:35:42;;;;;;;3.63;3.13;;;14.10;95.30;;;;;;4163477;28;20204;-77
2022/08/01 05:37:43;;;;;;;4.03;3.57;;;14.10;95.10;;;;;;4163254;28;20181;-77
2022/08/01 05:39:44;;;;;;;4.37;3.40;;;14.20;95.10;;;;;;4163442;28;20563;-77
2022/08/01 05:41:45;;;;;;;3.30;3.00;;;14.30;94.90;;;;;;4163535;28;20208;-77
2022/08/01 05:43:45;;;;;;;3.50;3.17;;;14.30;95.40;;;;;;4178829;28;20187;-76
2022/08/01 05:45:46;;;;;;;5.30;3.80;;;14.40;94.40;;;;;;4178488;28;20203;-77
2022/08/01 05:47:47;;;;;;;3.20;2.90;;;14.50;94.20;;;;;;4179646;28;20183;-77
2022/08/01 05:49:48;;;;;;;4.37;2.97;;;14.60;94.20;;;;;;4179650;28;20188;-77
2022/08/01 05:51:48;;;;;;;3.77;3.47;;;14.70;93.90;;;;;;4179639;28;20235;-77
2022/08/01 05:53:49;;;;;;;3.90;3.50;;;14.80;94.10;;;;;;4178825;28;20175;-77
2022/08/01 05:55:49;;;;;;;4.13;3.60;;;14.80;93.80;;;;;;4179559;28;20184;-78
2022/08/01 05:57:50;;;;;;;6.60;5.50;;;14.90;94.60;;;;;;4179667;28;20184;-78
2022/08/01 05:59:50;;;;;;;5.40;4.63;;;14.90;94.10;;;;;;4179680;28;20730;-77
2022/08/01 06:01:51;;;;;;;4.97;4.10;;;15.10;94.50;;;;;;4179542;28;20555;-77
2022/08/01 06:03:54;;;;;;;4.87;4.43;;;15.20;93.70;;;;;;4178801;28;20242;-77
2022/08/01 06:05:54;;;;;;;5.20;4.43;;;15.30;93.50;;;;;;4178712;28;20263;-77
2022/08/01 06:07:55;;;;;;;5.87;4.40;;;15.40;93.30;;;;;;4179620;28;20671;-78
2022/08/01 06:09:55;;;;;;;3.53;3.23;;;15.60;93.50;;;;;;4179739;28;20670;-78
2022/08/01 06:11:56;;;;;;;3.70;3.40;;;15.60;93.40;;;;;;4179352;28;20262;-78
2022/08/01 06:13:56;;;;;;;4.37;3.67;;;15.70;93.60;;;;;;4177331;28;20211;-78
2022/08/01 06:15:57;;;;;;;4.53;4.13;;;15.80;93.50;;;;;;4179464;28;20180;-78
2022/08/01 06:17:59;;;;;;;4.83;3.97;;;16.00;93.30;;;;;;4179463;28;20191;-78
2022/08/01 06:19:59;;;;;;;4.47;4.07;;;16.20;92.90;;;;;;4177897;28;20184;-78
2022/08/01 06:22:00;;;;;;;4.30;3.80;;;16.40;92.30;;;;;;4179003;28;20230;-74
2022/08/01 06:24:01;;;;;;;5.03;4.53;;;16.40;91.70;;;;;;4177878;28;20196;-76
2022/08/01 06:26:01;;;;;;;5.57;5.07;;;16.50;91.60;;;;;;4179129;28;20212;-77
2022/08/01 06:28:02;;;;;;;6.90;6.00;;;16.70;91.30;;;;;;4179448;28;20215;-77
2022/08/01 06:30:04;;;;;;;6.10;5.57;;;16.80;90.30;;;;;;4179233;28;20176;-77
2022/08/01 06:32:06;;;;;;;5.87;5.37;;;17.10;90.10;;;;;;4179656;28;20659;-77
2022/08/01 06:34:06;;;;;;;4.97;4.47;;;17.20;88.60;;;;;;4178956;28;20254;-76
2022/08/01 06:36:07;;;;;;;6.50;4.50;;;17.40;87.80;;;;;;4179354;28;20196;-76
2022/08/01 06:38:07;;;;;;;4.30;3.90;;;17.40;86.10;;;;;;4179374;28;20691;-76
2022/08/01 06:40:10;;;;;;;4.90;4.47;;;17.50;86.50;;;;;;4179242;28;20266;-76
2022/08/01 06:42:11;;;;;;;8.43;7.80;;;17.50;86.20;;;;;;4178969;28;20208;-76
2022/08/01 06:44:12;;;;;;;6.37;5.70;;;17.80;84.80;;;;;;4178657;28;20206;-77
2022/08/01 06:46:12;;;;;;;5.00;4.50;;;17.90;84.30;;;;;;4179058;28;20262;-77
2022/08/01 06:48:13;;;;;;;5.60;4.00;;;18.10;82.50;;;;;;4178915;28;20180;-77
2022/08/01 06:50:14;;;;;;;4.13;3.47;;;18.20;81.50;;;;;;4179047;28;20202;-77
2022/08/01 06:52:15;;;;;;;4.60;4.20;;;18.20;81.30;;;;;;4178784;28;20256;-77
2022/08/01 06:54:16;;;;;;;4.47;3.60;;;18.30;81.20;;;;;;4178111;28;20208;-77
2022/08/01 06:56:17;;;;;;;5.07;4.57;;;18.30;80.70;;;;;;4179154;28;20279;-77
2022/08/01 06:58:17;;;;;;;4.93;4.27;;;18.60;77.50;;;;;;4177514;28;20172;-77
2022/08/01 07:00:23;;;;;;;3.83;3.30;;;18.80;76.80;;;;;;4178845;28;20176;-77
2022/08/01 07:02:23;;;;;;;9.20;8.57;;;18.80;75.80;;;;;;4178885;28;20160;-76
2022/08/01 07:04:24;;;;;;;7.07;3.93;;;19.00;75.30;;;;;;4178177;28;20275;-76
2022/08/01 07:06:25;;;;;;;3.57;3.27;;;19.40;73.00;;;;;;4175377;28;20256;-77
2022/08/01 07:08:26;;;;;;;13.80;12.57;;;19.60;71.60;;;;;;4175773;28;20207;-77
2022/08/01 07:10:27;;;;;;;5.50;5.10;;;19.80;70.60;;;;;;4177359;28;20199;-77
2022/08/01 07:12:27;;;;;;;6.97;6.30;;;19.80;69.70;;;;;;4178544;28;20184;-76
2022/08/01 07:14:28;;;;;;;3.90;3.47;;;20.00;69.10;;;;;;4178026;28;20200;-77
2022/08/01 07:16:28;;;;;;;3.67;3.37;;;20.00;69.30;;;;;;4178745;28;20180;-77
2022/08/01 07:18:29;;;;;;;4.33;3.47;;;20.20;67.50;;;;;;4178647;28;20176;-77
2022/08/01 07:20:29;;;;;;;4.17;3.80;;;20.30;66.50;;;;;;4178788;28;20219;-77
2022/08/01 07:22:30;;;;;;;9.03;8.43;;;20.50;65.40;;;;;;4178613;28;20203;-77
2022/08/01 07:24:31;;;;;;;4.27;3.87;;;20.50;67.20;;;;;;4178025;28;20219;-72
2022/08/01 07:26:32;;;;;;;6.10;5.60;;;20.50;67.00;;;;;;4178978;28;20173;-78
2022/08/01 07:28:32;;;;;;;4.87;4.47;;;20.60;66.70;;;;;;4178708;28;20184;-77
2022/08/01 07:30:33;;;;;;;55.37;32.70;;;20.70;64.40;;;;;;4177413;28;20199;-77
2022/08/01 07:32:34;;;;;;;16.57;14.33;;;21.00;63.00;;;;;;4178624;28;20182;-78
2022/08/01 07:34:35;;;;;;;7.07;6.57;;;21.20;62.60;;;;;;4178141;28;20199;-77
2022/08/01 07:36:35;;;;;;;5.13;4.70;;;21.30;62.40;;;;;;4179429;28;20187;-77
2022/08/01 07:38:36;;;;;;;9.17;8.57;;;21.40;62.30;;;;;;4167851;28;20189;-76
2022/08/01 07:40:37;;;;;;;45.50;30.23;;;21.50;60.30;;;;;;4174717;28;20271;-77
2022/08/01 07:42:37;;;;;;;50.27;25.97;;;21.40;60.60;;;;;;4188125;28;20156;-79
2022/08/01 07:44:38;;;;;;;140.20;88.80;;;21.60;59.70;;;;;;4191353;28;20223;-79
2022/08/01 07:46:38;;;;;;;51.07;16.13;;;21.50;59.10;;;;;;4182781;28;20746;-78
2022/08/01 07:48:39;;;;;;;5.20;4.70;;;21.50;59.10;;;;;;4182356;28;20263;-77
2022/08/01 07:50:40;;;;;;;84.33;48.10;;;21.70;58.80;;;;;;4181941;28;20358;-79
2022/08/01 07:52:40;;;;;;;9.27;8.60;;;21.90;58.20;;;;;;4180314;28;20696;-78
2022/08/01 07:54:41;;;;;;;392.00;233.53;;;22.00;57.40;;;;;;4181055;28;20250;-78
2022/08/01 07:56:41;;;;;;;5.37;4.97;;;22.00;57.10;;;;;;4181511;28;20264;-78
2022/08/01 07:58:42;;;;;;;85.27;55.10;;;22.00;56.00;;;;;;4181586;28;20203;-77
2022/08/01 08:00:43;;;;;;;7.80;5.43;;;22.10;56.10;;;;;;4181361;28;20651;-78
2022/08/01 08:02:44;;;;;;;3.60;3.27;;;22.10;55.20;;;;;;4181598;28;20777;-77
2022/08/01 08:04:45;;;;;;;21.93;15.57;;;22.30;54.60;;;;;;4181184;28;20204;-78
2022/08/01 08:06:47;;;;;;;3.97;3.57;;;22.40;54.30;;;;;;4181340;28;20177;-78
2022/08/01 08:08:47;;;;;;;14.80;13.37;;;22.60;54.30;;;;;;4181618;28;20553;-78
2022/08/01 08:10:48;;;;;;;10.77;9.93;;;22.70;53.10;;;;;;4181536;28;20189;-77
2022/08/01 08:12:49;;;;;;;5.03;4.60;;;22.70;53.20;;;;;;4181427;28;20192;-77
2022/08/01 08:14:50;;;;;;;110.17;61.93;;;22.80;53.30;;;;;;4179448;28;20236;-77
2022/08/01 08:16:51;;;;;;;46.60;30.37;;;22.90;52.70;;;;;;4181323;28;20219;-77
2022/08/01 08:18:51;;;;;;;7.53;6.83;;;22.70;53.20;;;;;;4181060;28;20194;-77
2022/08/01 08:20:52;;;;;;;149.13;64.33;;;22.80;53.80;;;;;;4179964;28;20639;-77
2022/08/01 08:22:53;;;;;;;28.43;25.83;;;23.00;52.60;;;;;;4180934;28;20204;-77
2022/08/01 08:24:54;;;;;;;61.57;42.23;;;23.00;51.90;;;;;;4178917;28;20215;-77
2022/08/01 08:26:57;;;;;;;26.90;17.03;;;23.20;51.60;;;;;;4181169;28;20714;-77
2022/08/01 08:28:57;;;;;;;13.43;12.33;;;23.20;51.00;;;;;;4179799;28;20286;-77
2022/08/01 08:30:58;;;;;;;11.77;10.73;;;23.30;50.00;;;;;;4181027;28;20185;-77
2022/08/01 08:32:59;;;;;;;3.50;3.20;;;23.60;50.20;;;;;;4182032;28;20173;-77
2022/08/01 08:34:59;;;;;;;5.37;5.07;;;23.60;48.00;;;;;;4183324;28;20218;-77
2022/08/01 08:37:00;;;;;;;15.90;14.70;;;23.80;46.80;;;;;;4182041;28;20192;-77
2022/08/01 08:39:00;;;;;;;9.53;8.80;;;23.70;48.60;;;;;;4181517;28;20187;-77
2022/08/01 08:41:01;;;;;;;27.00;19.03;;;24.00;47.90;;;;;;4181531;28;20184;-77
2022/08/01 08:43:05;;;;;;;5.17;4.33;;;23.80;48.30;;;;;;4181533;28;20191;-77
2022/08/01 08:45:06;;;;;;;3.43;2.83;;;24.00;47.90;;;;;;4180669;28;20204;-77
2022/08/01 08:47:07;;;;;;;11.27;10.40;;;24.20;47.10;;;;;;4180944;28;20172;-77
2022/08/01 08:49:09;;;;;;;56.73;41.57;;;24.50;45.80;;;;;;4180152;28;20189;-76
2022/08/01 08:51:11;;;;;;;18.63;10.63;;;24.60;45.90;;;;;;4181317;28;20180;-77
2022/08/01 08:53:13;;;;;;;9.13;8.33;;;24.50;45.70;;;;;;4181345;28;20188;-76
2022/08/01 08:55:16;;;;;;;29.70;26.30;;;24.10;46.00;;;;;;4181595;28;20559;-76
2022/08/01 08:57:19;;;;;;;11.43;7.47;;;24.20;46.90;;;;;;4181840;28;20180;-76
2022/08/01 08:59:20;;;;;;;2.17;2.03;;;24.40;45.50;;;;;;4183476;28;20181;-77
2022/08/01 09:01:21;;;;;;;7.77;7.27;;;24.40;46.20;;;;;;4183509;28;20212;-76
2022/08/01 09:03:22;;;;;;;3.43;3.23;;;24.70;43.10;;;;;;4181587;28;20686;-76
2022/08/01 09:05:25;;;;;;;5.63;5.23;;;24.60;44.20;;;;;;4182925;28;20196;-76
2022/08/01 09:07:26;;;;;;;71.23;52.23;;;24.80;43.30;;;;;;4183128;28;20671;-77
2022/08/01 09:09:27;;;;;;;6.13;5.73;;;25.00;43.20;;;;;;4183263;28;20180;-76
2022/08/01 09:11:27;;;;;;;5.33;4.93;;;25.20;43.60;;;;;;4183065;28;20172;-76
2022/08/01 09:13:28;;;;;;;39.13;36.50;;;25.40;43.00;;;;;;4182478;28;20264;-76
2022/08/01 09:15:39;;;;;;;60.50;55.90;;;25.70;41.40;;;;;;4182854;28;20204;-76
2022/08/01 09:17:42;;;;;;;35.93;31.30;;;25.50;41.20;;;;;;4181475;28;20199;-76
2022/08/01 09:19:49;;;;;;;51.73;47.43;;;25.20;40.80;;;;;;4181759;28;20239;-76
2022/08/01 09:21:58;;;;;;;2.77;2.50;;;25.20;40.60;;;;;;4182685;28;20536;-76
2022/08/01 09:24:02;;;;;;;13.67;12.53;;;25.50;40.80;;;;;;4182086;28;20196;-76
2022/08/01 09:26:03;;;;;;;9.17;8.63;;;25.80;39.80;;;;;;4182835;28;20667;-76
2022/08/01 09:28:06;;;;;;;83.33;42.23;;;25.90;40.40;;;;;;4182527;28;20180;-76
2022/08/01 09:30:15;;;;;;;79.77;40.77;;;25.60;40.90;;;;;;4182423;28;20173;-76
2022/08/01 09:32:15;;;;;;;35.67;27.50;;;25.40;42.20;;;;;;4182659;28;20160;-75
2022/08/01 09:34:23;;;;;;;62.43;16.83;;;25.20;41.40;;;;;;4181497;28;20242;-76
2022/08/01 09:36:25;;;;;;;5.47;4.60;;;25.50;41.50;;;;;;4182467;28;20184;-75
2022/08/01 09:38:27;;;;;;;3.70;2.70;;;26.00;40.90;;;;;;4182685;28;20647;-76
2022/08/01 09:40:53;;;;;;;21.60;19.53;;;26.20;41.60;;;;;;4178002;28;20184;-76
2022/08/01 09:43:10;;;;;;;94.93;43.43;;;26.40;38.90;;;;;;4166072;28;20181;-76
2022/08/01 09:45:31;;;;;;;6.87;5.53;;;25.80;40.60;;;;;;4165093;28;20240;-75
2022/08/01 09:47:38;;;;;;;94.87;50.27;;;25.50;40.70;;;;;;4165949;28;20165;-75
2022/08/01 09:49:40;;;;;;;5.27;4.93;;;25.20;41.70;;;;;;4165815;28;20185;-75
2022/08/01 09:51:41;;;;;;;20.37;18.97;;;25.40;40.70;;;;;;4165721;28;20216;-75
2022/08/01 09:53:45;;;;;;;2.67;2.47;;;25.60;39.30;;;;;;4165204;28;20185;-75
2022/08/01 09:55:46;;;;;;;22.03;19.87;;;25.70;39.70;;;;;;4165774;28;20177;-75
2022/08/01 09:57:57;;;;;;;2.53;2.37;;;26.10;38.20;;;;;;4164267;28;20192;-75
2022/08/01 10:00:00;;;;;;;31.53;29.43;;;26.30;38.30;;;;;;4163281;28;20188;-75
2022/08/01 10:02:00;;;;;;;3.33;3.13;;;26.40;38.50;;;;;;4161702;28;20189;-75
2022/08/01 10:04:16;;;;;;;2.80;2.60;;;26.00;38.50;;;;;;4162383;28;20551;-74
2022/08/01 10:06:21;;;;;;;13.43;12.00;;;26.00;39.20;;;;;;4162919;28;20211;-75
2022/08/01 10:08:24;;;;;;;8.77;8.13;;;25.80;38.00;;;;;;4162909;28;20177;-75
2022/08/01 10:10:25;;;;;;;20.63;16.33;;;25.70;39.10;;;;;;4163012;28;20641;-74
2022/08/01 10:12:26;;;;;;;33.13;31.17;;;25.80;39.20;;;;;;4162778;28;20192;-75
2022/08/01 10:14:28;;;;;;;10.47;9.83;;;26.40;37.00;;;;;;4162225;28;20223;-75
2022/08/01 10:16:30;;;;;;;11.63;11.00;;;26.70;34.90;;;;;;4162906;28;20664;-75
2022/08/01 10:18:33;;;;;;;11.60;10.80;;;27.00;34.00;;;;;;4162687;28;20640;-75
2022/08/01 10:20:33;;;;;;;7.17;6.67;;;27.40;35.10;;;;;;4162854;28;20207;-75
2022/08/01 10:22:35;;;;;;;45.37;42.70;;;27.60;34.70;;;;;;4162606;28;20205;-74
2022/08/01 10:24:40;;;;;;;39.63;36.63;;;27.90;33.80;;;;;;4162210;28;20292;-75
2022/08/01 10:26:44;;;;;;;2.77;2.57;;;27.70;33.00;;;;;;4162595;28;20287;-75
2022/08/01 10:28:47;;;;;;;4.63;4.33;;;27.60;34.00;;;;;;4162601;28;20810;-74
2022/08/01 10:30:48;;;;;;;7.07;6.63;;;27.60;32.90;;;;;;4162591;28;20545;-74
2022/08/01 10:32:51;;;;;;;2.50;2.30;;;27.60;33.40;;;;;;4162648;28;20671;-74
2022/08/01 10:34:52;;;;;;;25.27;23.90;;;27.90;34.40;;;;;;4160432;28;20220;-74
2022/08/01 10:36:53;;;;;;;18.83;17.73;;;28.60;31.60;;;;;;4162530;28;20375;-75